sensor_id;sensor_type;location;lat;lon;timestamp;pressure;altitude;pressure_sealevel;temperature;humidity
35419;BME280;21525;41.240;16.500;2023-04-08T00:02:11;101490.75;;;16.56;48.01
35419;BME280;21525;41.240;16.500;2023-04-08T00:04:37;101480.56;;;16.42;48.90
35419;BME280;21525;41.240;16.500;2023-04-08T00:07:02;101486.16;;;16.64;48.23
35419;BME280;21525;41.240;16.500;2023-04-08T00:09:28;101482.97;;;16.16;50.09
35419;BME280;21525;41.240;16.500;2023-04-08T00:11:54;101483.06;;;15.74;51.35
35419;BME280;21525;41.240;16.500;2023-04-08T00:14:21;101478.72;;;15.73;52.37
35419;BME280;21525;41.240;16.500;2023-04-08T00:16:47;101477.81;;;16.48;50.06
35419;BME280;21525;41.240;16.500;2023-04-08T00:19:13;101480.59;;;16.05;51.26
35419;BME280;21525;41.240;16.500;2023-04-08T00:21:38;101475.25;;;16.09;51.74
35419;BME280;21525;41.240;16.500;2023-04-08T00:24:05;101478.13;;;15.99;51.99
35419;BME280;21525;41.240;16.500;2023-04-08T00:26:31;101477.38;;;15.54;53.17
35419;BME280;21525;41.240;16.500;2023-04-08T00:28:57;101485.75;;;16.09;52.23
35419;BME280;21525;41.240;16.500;2023-04-08T00:31:23;101480.63;;;15.23;56.06
35419;BME280;21525;41.240;16.500;2023-04-08T00:33:49;101473.59;;;15.67;55.21
35419;BME280;21525;41.240;16.500;2023-04-08T00:36:15;101469.75;;;15.83;54.68
35419;BME280;21525;41.240;16.500;2023-04-08T00:38:40;101467.72;;;15.56;55.10
35419;BME280;21525;41.240;16.500;2023-04-08T00:41:06;101465.56;;;15.74;54.68
35419;BME280;21525;41.240;16.500;2023-04-08T00:43:32;101470.75;;;16.15;53.28
35419;BME280;21525;41.240;16.500;2023-04-08T00:45:58;101461.53;;;15.97;54.05
35419;BME280;21525;41.240;16.500;2023-04-08T00:48:23;101460.09;;;16.22;53.10
35419;BME280;21525;41.240;16.500;2023-04-08T00:50:49;101461.94;;;16.53;52.24
35419;BME280;21525;41.240;16.500;2023-04-08T00:53:17;101466.94;;;16.26;52.95
35419;BME280;21525;41.240;16.500;2023-04-08T00:55:44;101459.22;;;16.22;52.72
35419;BME280;21525;41.240;16.500;2023-04-08T00:58:10;101455.31;;;16.36;52.64
35419;BME280;21525;41.240;16.500;2023-04-08T01:00:39;101465.47;;;16.16;53.01
35419;BME280;21525;41.240;16.500;2023-04-08T01:06:24;101454.50;;;16.70;51.40
35419;BME280;21525;41.240;16.500;2023-04-08T01:08:52;101445.94;;;16.60;51.25
35419;BME280;21525;41.240;16.500;2023-04-08T01:11:20;101450.84;;;16.06;53.38
35419;BME280;21525;41.240;16.500;2023-04-08T01:13:46;101447.19;;;16.47;51.61
35419;BME280;21525;41.240;16.500;2023-04-08T01:16:15;101439.75;;;16.64;51.35
35419;BME280;21525;41.240;16.500;2023-04-08T01:18:43;101440.09;;;16.51;51.37
35419;BME280;21525;41.240;16.500;2023-04-08T01:21:10;101439.03;;;16.24;52.47
35419;BME280;21525;41.240;16.500;2023-04-08T01:23:58;101443.75;;;16.45;51.84
35419;BME280;21525;41.240;16.500;2023-04-08T01:26:26;101443.22;;;15.95;53.34
35419;BME280;21525;41.240;16.500;2023-04-08T01:28:56;101447.06;;;16.18;53.98
35419;BME280;21525;41.240;16.500;2023-04-08T01:31:24;101446.53;;;16.03;53.43
35419;BME280;21525;41.240;16.500;2023-04-08T01:33:51;101445.59;;;16.06;53.40
35419;BME280;21525;41.240;16.500;2023-04-08T01:36:17;101444.97;;;16.30;53.18
35419;BME280;21525;41.240;16.500;2023-04-08T01:38:46;101435.41;;;16.28;52.43
35419;BME280;21525;41.240;16.500;2023-04-08T01:41:15;101442.25;;;16.35;52.35
35419;BME280;21525;41.240;16.500;2023-04-08T01:43:42;101445.31;;;16.18;52.94
35419;BME280;21525;41.240;16.500;2023-04-08T01:46:10;101445.81;;;15.97;53.68
35419;BME280;21525;41.240;16.500;2023-04-08T01:48:37;101452.38;;;16.15;53.43
35419;BME280;21525;41.240;16.500;2023-04-08T01:51:05;101444.75;;;16.04;53.35
35419;BME280;21525;41.240;16.500;2023-04-08T01:53:32;101435.38;;;16.29;52.60
35419;BME280;21525;41.240;16.500;2023-04-08T01:56:05;101440.69;;;16.60;51.76
35419;BME280;21525;41.240;16.500;2023-04-08T01:58:37;101438.63;;;16.05;53.19
35419;BME280;21525;41.240;16.500;2023-04-08T02:01:05;101440.28;;;16.43;52.17
35419;BME280;21525;41.240;16.500;2023-04-08T02:03:36;101434.31;;;16.36;52.41
35419;BME280;21525;41.240;16.500;2023-04-08T02:06:02;101431.50;;;16.44;52.20
35419;BME280;21525;41.240;16.500;2023-04-08T02:08:28;101427.03;;;16.48;51.86
35419;BME280;21525;41.240;16.500;2023-04-08T02:10:53;101421.28;;;16.67;51.23
35419;BME280;21525;41.240;16.500;2023-04-08T02:13:19;101421.19;;;16.70;51.35
35419;BME280;21525;41.240;16.500;2023-04-08T02:15:50;101421.94;;;16.75;50.81
35419;BME280;21525;41.240;16.500;2023-04-08T02:18:25;101420.56;;;16.93;50.36
35419;BME280;21525;41.240;16.500;2023-04-08T02:21:07;101425.19;;;16.51;51.66
35419;BME280;21525;41.240;16.500;2023-04-08T02:23:37;101414.00;;;16.44;51.80
35419;BME280;21525;41.240;16.500;2023-04-08T02:26:07;101414.22;;;16.69;51.13
35419;BME280;21525;41.240;16.500;2023-04-08T02:28:38;101416.72;;;16.74;50.89
35419;BME280;21525;41.240;16.500;2023-04-08T02:31:09;101410.66;;;16.72;51.00
35419;BME280;21525;41.240;16.500;2023-04-08T02:33:36;101409.50;;;16.50;51.84
35419;BME280;21525;41.240;16.500;2023-04-08T02:36:04;101404.53;;;16.71;51.16
35419;BME280;21525;41.240;16.500;2023-04-08T02:38:31;101406.00;;;16.82;50.83
35419;BME280;21525;41.240;16.500;2023-04-08T02:40:57;101397.84;;;16.91;50.94
35419;BME280;21525;41.240;16.500;2023-04-08T02:43:24;101405.59;;;16.64;51.23
35419;BME280;21525;41.240;16.500;2023-04-08T02:45:57;101401.81;;;16.42;51.68
35419;BME280;21525;41.240;16.500;2023-04-08T02:48:23;101392.72;;;16.55;51.51
35419;BME280;21525;41.240;16.500;2023-04-08T02:50:49;101394.44;;;16.56;51.38
35419;BME280;21525;41.240;16.500;2023-04-08T02:53:14;101386.88;;;16.76;50.94
35419;BME280;21525;41.240;16.500;2023-04-08T02:55:40;101383.09;;;16.87;50.95
35419;BME280;21525;41.240;16.500;2023-04-08T02:58:06;101389.91;;;16.92;50.30
35419;BME280;21525;41.240;16.500;2023-04-08T03:00:32;101383.34;;;16.77;50.47
35419;BME280;21525;41.240;16.500;2023-04-08T03:02:57;101384.34;;;16.73;50.16
35419;BME280;21525;41.240;16.500;2023-04-08T03:05:25;101377.72;;;16.90;49.73
35419;BME280;21525;41.240;16.500;2023-04-08T03:07:51;101376.25;;;16.81;49.86
35419;BME280;21525;41.240;16.500;2023-04-08T03:10:17;101373.91;;;16.70;50.06
35419;BME280;21525;41.240;16.500;2023-04-08T03:12:43;101375.25;;;16.85;49.68
35419;BME280;21525;41.240;16.500;2023-04-08T03:15:08;101378.00;;;16.81;49.51
35419;BME280;21525;41.240;16.500;2023-04-08T03:17:35;101371.84;;;16.82;49.68
35419;BME280;21525;41.240;16.500;2023-04-08T03:20:01;101367.59;;;16.77;49.63
35419;BME280;21525;41.240;16.500;2023-04-08T03:22:29;101376.25;;;17.68;47.95
35419;BME280;21525;41.240;16.500;2023-04-08T03:24:55;101372.56;;;17.18;48.50
35419;BME280;21525;41.240;16.500;2023-04-08T03:27:21;101382.78;;;16.97;48.64
35419;BME280;21525;41.240;16.500;2023-04-08T03:29:46;101377.72;;;16.90;49.20
35419;BME280;21525;41.240;16.500;2023-04-08T03:32:12;101380.53;;;16.85;48.94
35419;BME280;21525;41.240;16.500;2023-04-08T03:34:38;101378.97;;;16.78;49.09
35419;BME280;21525;41.240;16.500;2023-04-08T03:37:04;101376.47;;;16.73;49.75
35419;BME280;21525;41.240;16.500;2023-04-08T03:39:31;101374.66;;;16.75;49.11
35419;BME280;21525;41.240;16.500;2023-04-08T03:41:57;101377.44;;;16.69;49.52
35419;BME280;21525;41.240;16.500;2023-04-08T03:44:25;101369.44;;;16.74;49.40
35419;BME280;21525;41.240;16.500;2023-04-08T03:46:51;101374.31;;;16.88;48.76
35419;BME280;21525;41.240;16.500;2023-04-08T03:49:17;101373.41;;;16.89;49.12
35419;BME280;21525;41.240;16.500;2023-04-08T03:51:43;101370.47;;;16.68;49.51
35419;BME280;21525;41.240;16.500;2023-04-08T03:54:08;101377.19;;;16.46;49.87
35419;BME280;21525;41.240;16.500;2023-04-08T03:56:34;101376.13;;;16.53;49.51
35419;BME280;21525;41.240;16.500;2023-04-08T03:59:00;101373.41;;;16.56;49.36
35419;BME280;21525;41.240;16.500;2023-04-08T04:01:25;101371.13;;;16.76;48.76
35419;BME280;21525;41.240;16.500;2023-04-08T04:03:51;101379.94;;;16.41;49.87
35419;BME280;21525;41.240;16.500;2023-04-08T04:06:17;101374.13;;;16.61;49.18
35419;BME280;21525;41.240;16.500;2023-04-08T04:08:43;101374.47;;;16.49;49.25
35419;BME280;21525;41.240;16.500;2023-04-08T04:11:08;101376.38;;;16.76;48.39
35419;BME280;21525;41.240;16.500;2023-04-08T04:13:34;101374.41;;;16.52;49.20
35419;BME280;21525;41.240;16.500;2023-04-08T04:16:00;101366.50;;;16.54;49.28
35419;BME280;21525;41.240;16.500;2023-04-08T04:18:25;101374.09;;;16.63;48.75
35419;BME280;21525;41.240;16.500;2023-04-08T04:20:51;101370.81;;;16.87;48.28
35419;BME280;21525;41.240;16.500;2023-04-08T04:23:17;101373.00;;;16.71;48.36
35419;BME280;21525;41.240;16.500;2023-04-08T04:25:42;101365.25;;;16.67;48.75
35419;BME280;21525;41.240;16.500;2023-04-08T04:28:08;101382.41;;;16.80;48.18
35419;BME280;21525;41.240;16.500;2023-04-08T04:30:38;101387.94;;;16.69;48.37
35419;BME280;21525;41.240;16.500;2023-04-08T04:33:04;101384.22;;;16.78;48.01
35419;BME280;21525;41.240;16.500;2023-04-08T04:35:30;101383.34;;;16.77;48.34
35419;BME280;21525;41.240;16.500;2023-04-08T04:37:56;101379.53;;;16.89;47.71
35419;BME280;21525;41.240;16.500;2023-04-08T04:40:22;101381.19;;;16.92;47.65
35419;BME280;21525;41.240;16.500;2023-04-08T04:42:47;101381.19;;;16.92;47.39
35419;BME280;21525;41.240;16.500;2023-04-08T04:45:13;101376.94;;;17.17;46.81
35419;BME280;21525;41.240;16.500;2023-04-08T04:47:39;101389.13;;;17.77;45.70
35419;BME280;21525;41.240;16.500;2023-04-08T04:50:05;101380.09;;;18.37;44.29
35419;BME280;21525;41.240;16.500;2023-04-08T04:52:31;101381.53;;;17.94;44.65
35419;BME280;21525;41.240;16.500;2023-04-08T04:54:57;101385.06;;;17.67;45.08
35419;BME280;21525;41.240;16.500;2023-04-08T04:57:23;101379.13;;;18.64;43.42
35419;BME280;21525;41.240;16.500;2023-04-08T04:59:49;101372.44;;;20.54;39.94
35419;BME280;21525;41.240;16.500;2023-04-08T05:02:15;101366.13;;;22.06;37.11
35419;BME280;21525;41.240;16.500;2023-04-08T05:04:42;101364.59;;;23.34;34.87
35419;BME280;21525;41.240;16.500;2023-04-08T05:07:08;101363.13;;;22.47;35.71
35419;BME280;21525;41.240;16.500;2023-04-08T05:09:33;101371.69;;;22.69;35.42
35419;BME280;21525;41.240;16.500;2023-04-08T05:11:59;101362.81;;;23.96;33.63
35419;BME280;21525;41.240;16.500;2023-04-08T05:14:28;101365.34;;;25.41;31.85
35419;BME280;21525;41.240;16.500;2023-04-08T05:16:54;101364.38;;;26.36;30.25
35419;BME280;21525;41.240;16.500;2023-04-08T05:19:19;101372.19;;;26.90;29.60
35419;BME280;21525;41.240;16.500;2023-04-08T05:21:46;101370.50;;;27.86;28.38
35419;BME280;21525;41.240;16.500;2023-04-08T05:24:12;101365.69;;;28.59;27.68
35419;BME280;21525;41.240;16.500;2023-04-08T05:26:38;101369.63;;;29.11;26.44
35419;BME280;21525;41.240;16.500;2023-04-08T05:29:04;101368.97;;;29.84;25.84
35419;BME280;21525;41.240;16.500;2023-04-08T05:31:29;101371.34;;;30.82;25.46
35419;BME280;21525;41.240;16.500;2023-04-08T05:33:55;101367.84;;;31.40;24.42
35419;BME280;21525;41.240;16.500;2023-04-08T05:36:21;101362.66;;;31.08;24.64
35419;BME280;21525;41.240;16.500;2023-04-08T05:38:46;101365.84;;;31.33;24.39
35419;BME280;21525;41.240;16.500;2023-04-08T05:41:13;101373.69;;;32.13;23.42
35419;BME280;21525;41.240;16.500;2023-04-08T05:43:39;101372.03;;;31.83;23.75
35419;BME280;21525;41.240;16.500;2023-04-08T05:46:08;101366.53;;;32.97;23.16
35419;BME280;21525;41.240;16.500;2023-04-08T05:48:35;101365.03;;;34.63;21.60
35419;BME280;21525;41.240;16.500;2023-04-08T05:51:01;101375.44;;;33.70;21.91
35419;BME280;21525;41.240;16.500;2023-04-08T05:53:27;101368.66;;;35.14;21.53
35419;BME280;21525;41.240;16.500;2023-04-08T05:55:53;101373.00;;;33.77;22.47
35419;BME280;21525;41.240;16.500;2023-04-08T05:58:19;101372.53;;;33.82;22.18
35419;BME280;21525;41.240;16.500;2023-04-08T06:00:45;101359.97;;;34.94;21.50
35419;BME280;21525;41.240;16.500;2023-04-08T06:03:11;101370.00;;;32.33;23.34
35419;BME280;21525;41.240;16.500;2023-04-08T06:05:36;101371.44;;;33.92;22.71
35419;BME280;21525;41.240;16.500;2023-04-08T06:08:02;101362.09;;;35.24;21.54
35419;BME280;21525;41.240;16.500;2023-04-08T06:10:28;101363.56;;;33.63;22.33
35419;BME280;21525;41.240;16.500;2023-04-08T06:12:54;101371.50;;;34.44;21.73
35419;BME280;21525;41.240;16.500;2023-04-08T06:15:19;101370.97;;;33.79;22.26
35419;BME280;21525;41.240;16.500;2023-04-08T06:17:45;101380.09;;;31.73;24.41
35419;BME280;21525;41.240;16.500;2023-04-08T06:20:11;101373.03;;;33.50;23.13
35419;BME280;21525;41.240;16.500;2023-04-08T06:22:37;101374.28;;;34.09;22.80
35419;BME280;21525;41.240;16.500;2023-04-08T06:25:03;101374.31;;;32.54;23.18
35419;BME280;21525;41.240;16.500;2023-04-08T06:27:29;101382.19;;;32.09;23.91
35419;BME280;21525;41.240;16.500;2023-04-08T06:29:55;101378.03;;;34.33;21.78
35419;BME280;21525;41.240;16.500;2023-04-08T06:32:21;101370.22;;;34.82;21.31
35419;BME280;21525;41.240;16.500;2023-04-08T06:34:47;101366.13;;;35.71;20.16
35419;BME280;21525;41.240;16.500;2023-04-08T06:37:13;101381.47;;;31.87;22.97
35419;BME280;21525;41.240;16.500;2023-04-08T06:39:39;101371.28;;;33.41;21.44
35419;BME280;21525;41.240;16.500;2023-04-08T06:42:05;101372.94;;;35.24;21.35
35419;BME280;21525;41.240;16.500;2023-04-08T06:44:38;101377.19;;;34.59;21.44
35419;BME280;21525;41.240;16.500;2023-04-08T06:47:04;101371.66;;;34.68;21.22
35419;BME280;21525;41.240;16.500;2023-04-08T06:49:29;101388.47;;;28.76;25.58
35419;BME280;21525;41.240;16.500;2023-04-08T06:51:55;101395.34;;;28.34;26.71
35419;BME280;21525;41.240;16.500;2023-04-08T06:54:21;101393.09;;;28.17;27.63
35419;BME280;21525;41.240;16.500;2023-04-08T06:56:47;101402.06;;;25.51;29.57
35419;BME280;21525;41.240;16.500;2023-04-08T06:59:12;101393.22;;;26.31;29.16
35419;BME280;21525;41.240;16.500;2023-04-08T07:01:38;101399.59;;;25.48;29.54
35419;BME280;21525;41.240;16.500;2023-04-08T07:04:04;101398.56;;;24.21;31.45
35419;BME280;21525;41.240;16.500;2023-04-08T07:06:30;101407.94;;;24.42;31.06
35419;BME280;21525;41.240;16.500;2023-04-08T07:08:55;101406.31;;;24.09;31.75
35419;BME280;21525;41.240;16.500;2023-04-08T07:11:21;101405.13;;;24.59;31.25
35419;BME280;21525;41.240;16.500;2023-04-08T07:13:47;101410.69;;;22.67;33.82
35419;BME280;21525;41.240;16.500;2023-04-08T07:16:13;101397.06;;;24.75;31.86
35419;BME280;21525;41.240;16.500;2023-04-08T07:18:38;101393.66;;;25.16;31.76
35419;BME280;21525;41.240;16.500;2023-04-08T07:21:06;101407.63;;;23.08;34.52
35419;BME280;21525;41.240;16.500;2023-04-08T07:23:31;101395.91;;;23.43;35.49
35419;BME280;21525;41.240;16.500;2023-04-08T07:26:01;101404.94;;;22.92;36.56
35419;BME280;21525;41.240;16.500;2023-04-08T07:28:27;101398.38;;;23.94;35.97
35419;BME280;21525;41.240;16.500;2023-04-08T07:30:53;101415.25;;;21.95;40.04
35419;BME280;21525;41.240;16.500;2023-04-08T07:33:19;101401.94;;;22.65;39.51
35419;BME280;21525;41.240;16.500;2023-04-08T07:35:45;101408.19;;;22.47;40.90
35419;BME280;21525;41.240;16.500;2023-04-08T07:38:11;101405.16;;;23.05;39.70
35419;BME280;21525;41.240;16.500;2023-04-08T07:40:37;101405.25;;;23.19;38.30
35419;BME280;21525;41.240;16.500;2023-04-08T07:43:03;101407.19;;;23.64;38.14
35419;BME280;21525;41.240;16.500;2023-04-08T07:45:29;101403.97;;;23.89;38.32
35419;BME280;21525;41.240;16.500;2023-04-08T07:47:55;101403.97;;;23.42;37.44
35419;BME280;21525;41.240;16.500;2023-04-08T07:50:21;101406.63;;;23.89;37.57
35419;BME280;21525;41.240;16.500;2023-04-08T07:52:47;101395.31;;;25.45;35.98
35419;BME280;21525;41.240;16.500;2023-04-08T07:55:12;101397.97;;;26.26;33.91
35419;BME280;21525;41.240;16.500;2023-04-08T07:57:38;101393.63;;;25.71;35.06
35419;BME280;21525;41.240;16.500;2023-04-08T08:00:04;101399.72;;;26.65;33.92
35419;BME280;21525;41.240;16.500;2023-04-08T08:02:38;101406.88;;;24.00;35.44
35419;BME280;21525;41.240;16.500;2023-04-08T08:05:04;101404.28;;;24.59;36.92
35419;BME280;21525;41.240;16.500;2023-04-08T08:07:30;101409.38;;;24.18;37.04
35419;BME280;21525;41.240;16.500;2023-04-08T08:09:56;101403.47;;;24.42;37.70
35419;BME280;21525;41.240;16.500;2023-04-08T08:12:22;101405.78;;;22.75;39.61
35419;BME280;21525;41.240;16.500;2023-04-08T08:14:47;101398.25;;;24.27;36.74
35419;BME280;21525;41.240;16.500;2023-04-08T08:17:13;101403.63;;;23.79;37.49
35419;BME280;21525;41.240;16.500;2023-04-08T08:19:39;101406.81;;;24.32;37.32
35419;BME280;21525;41.240;16.500;2023-04-08T08:22:05;101406.16;;;22.52;40.87
35419;BME280;21525;41.240;16.500;2023-04-08T08:24:30;101407.38;;;25.51;36.52
35419;BME280;21525;41.240;16.500;2023-04-08T08:26:56;101411.34;;;24.30;36.98
35419;BME280;21525;41.240;16.500;2023-04-08T08:29:22;101407.81;;;23.99;35.83
35419;BME280;21525;41.240;16.500;2023-04-08T08:31:49;101414.72;;;23.56;37.14
35419;BME280;21525;41.240;16.500;2023-04-08T08:34:15;101424.25;;;23.27;37.45
35419;BME280;21525;41.240;16.500;2023-04-08T08:36:41;101423.94;;;22.67;40.34
35419;BME280;21525;41.240;16.500;2023-04-08T08:39:06;101424.09;;;23.93;38.19
35419;BME280;21525;41.240;16.500;2023-04-08T08:41:33;101434.03;;;22.76;41.71
35419;BME280;21525;41.240;16.500;2023-04-08T08:44:04;101432.19;;;22.96;40.22
35419;BME280;21525;41.240;16.500;2023-04-08T08:46:30;101424.94;;;22.65;38.75
35419;BME280;21525;41.240;16.500;2023-04-08T08:48:56;101434.06;;;22.25;40.90
35419;BME280;21525;41.240;16.500;2023-04-08T08:51:23;101428.38;;;23.33;38.90
35419;BME280;21525;41.240;16.500;2023-04-08T08:53:49;101424.47;;;22.91;38.11
35419;BME280;21525;41.240;16.500;2023-04-08T08:56:14;101437.81;;;22.21;38.24
35419;BME280;21525;41.240;16.500;2023-04-08T08:58:40;101435.78;;;22.26;37.96
35419;BME280;21525;41.240;16.500;2023-04-08T09:01:28;101439.38;;;22.25;36.71
35419;BME280;21525;41.240;16.500;2023-04-08T09:06:32;101427.38;;;22.18;36.20
35419;BME280;21525;41.240;16.500;2023-04-08T09:08:58;101424.22;;;22.96;39.46
35419;BME280;21525;41.240;16.500;2023-04-08T09:11:24;101423.94;;;22.67;36.60
35419;BME280;21525;41.240;16.500;2023-04-08T09:13:50;101443.56;;;22.11;35.41
35419;BME280;21525;41.240;16.500;2023-04-08T09:16:17;101430.97;;;23.34;35.67
35419;BME280;21525;41.240;16.500;2023-04-08T09:18:45;101444.06;;;22.71;36.19
35419;BME280;21525;41.240;16.500;2023-04-08T09:21:12;101430.84;;;23.04;35.20
35419;BME280;21525;41.240;16.500;2023-04-08T09:23:42;101442.59;;;21.40;32.18
35419;BME280;21525;41.240;16.500;2023-04-08T09:26:09;101431.03;;;22.32;38.09
35419;BME280;21525;41.240;16.500;2023-04-08T09:28:36;101433.56;;;21.99;37.69
35419;BME280;21525;41.240;16.500;2023-04-08T09:31:20;101440.28;;;22.75;37.76
35419;BME280;21525;41.240;16.500;2023-04-08T09:33:51;101446.78;;;21.44;36.12
35419;BME280;21525;41.240;16.500;2023-04-08T09:36:17;101438.97;;;22.50;36.12
35419;BME280;21525;41.240;16.500;2023-04-08T09:38:43;101434.84;;;22.44;37.38
35419;BME280;21525;41.240;16.500;2023-04-08T09:41:13;101440.72;;;21.42;36.38
35419;BME280;21525;41.240;16.500;2023-04-08T09:43:48;101441.78;;;21.57;36.66
35419;BME280;21525;41.240;16.500;2023-04-08T09:46:16;101429.88;;;20.70;39.55
35419;BME280;21525;41.240;16.500;2023-04-08T09:48:54;101426.09;;;21.53;39.09
35419;BME280;21525;41.240;16.500;2023-04-08T09:51:21;101427.78;;;21.36;39.00
35419;BME280;21525;41.240;16.500;2023-04-08T09:53:55;101433.66;;;20.84;39.56
35419;BME280;21525;41.240;16.500;2023-04-08T09:56:26;101422.72;;;22.40;39.28
35419;BME280;21525;41.240;16.500;2023-04-08T09:58:58;101417.16;;;22.27;41.85
35419;BME280;21525;41.240;16.500;2023-04-08T10:01:39;101417.47;;;23.06;39.51
35419;BME280;21525;41.240;16.500;2023-04-08T10:04:14;101426.69;;;21.22;42.96
35419;BME280;21525;41.240;16.500;2023-04-08T10:06:40;101420.25;;;21.82;41.77
35419;BME280;21525;41.240;16.500;2023-04-08T10:09:07;101423.81;;;22.00;42.14
35419;BME280;21525;41.240;16.500;2023-04-08T10:11:33;101421.09;;;22.88;40.97
35419;BME280;21525;41.240;16.500;2023-04-08T10:14:01;101418.75;;;21.22;42.57
35419;BME280;21525;41.240;16.500;2023-04-08T10:16:27;101415.59;;;21.51;46.21
35419;BME280;21525;41.240;16.500;2023-04-08T10:18:54;101408.19;;;22.64;44.23
35419;BME280;21525;41.240;16.500;2023-04-08T10:21:37;101413.94;;;21.49;44.82
35419;BME280;21525;41.240;16.500;2023-04-08T10:24:10;101413.09;;;20.71;47.68
35419;BME280;21525;41.240;16.500;2023-04-08T10:26:38;101411.88;;;21.91;45.91
35419;BME280;21525;41.240;16.500;2023-04-08T10:31:47;101404.25;;;23.37;42.03
35419;BME280;21525;41.240;16.500;2023-04-08T10:34:21;101413.09;;;21.84;44.57
35419;BME280;21525;41.240;16.500;2023-04-08T10:36:52;101417.25;;;22.08;43.79
35419;BME280;21525;41.240;16.500;2023-04-08T10:39:18;101409.47;;;22.40;41.78
35419;BME280;21525;41.240;16.500;2023-04-08T10:41:46;101409.16;;;21.93;43.77
35419;BME280;21525;41.240;16.500;2023-04-08T10:44:19;101417.75;;;21.24;45.73
35419;BME280;21525;41.240;16.500;2023-04-08T10:46:46;101422.75;;;21.30;45.64
35419;BME280;21525;41.240;16.500;2023-04-08T10:49:16;101419.47;;;21.25;45.51
35419;BME280;21525;41.240;16.500;2023-04-08T10:51:43;101427.63;;;21.39;44.62
35419;BME280;21525;41.240;16.500;2023-04-08T10:54:16;101415.38;;;22.28;46.00
35419;BME280;21525;41.240;16.500;2023-04-08T10:56:50;101412.81;;;21.90;41.81
35419;BME280;21525;41.240;16.500;2023-04-08T10:59:26;101400.53;;;20.76;47.35
35419;BME280;21525;41.240;16.500;2023-04-08T11:01:52;101405.69;;;21.17;48.02
35419;BME280;21525;41.240;16.500;2023-04-08T11:04:19;101401.88;;;21.43;47.72
35419;BME280;21525;41.240;16.500;2023-04-08T11:06:48;101404.72;;;21.76;47.64
35419;BME280;21525;41.240;16.500;2023-04-08T11:09:15;101398.31;;;21.25;49.39
35419;BME280;21525;41.240;16.500;2023-04-08T11:11:44;101390.13;;;21.85;46.49
35419;BME280;21525;41.240;16.500;2023-04-08T11:14:11;101387.69;;;21.80;45.01
35419;BME280;21525;41.240;16.500;2023-04-08T11:16:38;101379.84;;;21.42;44.56
35419;BME280;21525;41.240;16.500;2023-04-08T11:19:04;101389.03;;;19.95;47.19
35419;BME280;21525;41.240;16.500;2023-04-08T11:21:31;101375.13;;;21.30;45.35
35419;BME280;21525;41.240;16.500;2023-04-08T11:23:59;101362.25;;;21.41;45.65
35419;BME280;21525;41.240;16.500;2023-04-08T11:26:25;101362.59;;;20.57;48.67
35419;BME280;21525;41.240;16.500;2023-04-08T11:28:52;101361.94;;;21.84;45.14
35419;BME280;21525;41.240;16.500;2023-04-08T11:31:19;101355.63;;;21.69;44.70
35419;BME280;21525;41.240;16.500;2023-04-08T11:33:48;101345.28;;;21.45;46.32
35419;BME280;21525;41.240;16.500;2023-04-08T11:36:16;101333.94;;;21.43;45.63
35419;BME280;21525;41.240;16.500;2023-04-08T11:38:42;101340.31;;;19.82;48.71
35419;BME280;21525;41.240;16.500;2023-04-08T11:41:09;101334.75;;;21.63;44.59
35419;BME280;21525;41.240;16.500;2023-04-08T11:43:36;101323.91;;;22.03;44.12
35419;BME280;21525;41.240;16.500;2023-04-08T11:46:12;101316.81;;;21.13;46.52
35419;BME280;21525;41.240;16.500;2023-04-08T11:48:38;101312.53;;;20.54;47.99
35419;BME280;21525;41.240;16.500;2023-04-08T11:51:05;101316.00;;;20.94;49.41
35419;BME280;21525;41.240;16.500;2023-04-08T11:53:34;101314.03;;;21.16;49.33
35419;BME280;21525;41.240;16.500;2023-04-08T11:56:19;101316.19;;;20.89;50.42
35419;BME280;21525;41.240;16.500;2023-04-08T11:58:46;101309.94;;;21.46;49.61
35419;BME280;21525;41.240;16.500;2023-04-08T12:01:12;101309.78;;;21.32;50.11
35419;BME280;21525;41.240;16.500;2023-04-08T12:03:38;101296.41;;;20.98;52.87
35419;BME280;21525;41.240;16.500;2023-04-08T12:06:04;101296.41;;;20.98;53.65
35419;BME280;21525;41.240;16.500;2023-04-08T12:08:31;101285.69;;;21.90;52.38
35419;BME280;21525;41.240;16.500;2023-04-08T12:10:57;101286.09;;;22.00;49.93
35419;BME280;21525;41.240;16.500;2023-04-08T12:13:23;101295.53;;;21.16;51.63
35419;BME280;21525;41.240;16.500;2023-04-08T12:15:49;101280.63;;;20.77;54.40
35419;BME280;21525;41.240;16.500;2023-04-08T12:18:14;101279.53;;;21.90;51.30
35419;BME280;21525;41.240;16.500;2023-04-08T12:20:40;101299.41;;;20.71;50.06
35419;BME280;21525;41.240;16.500;2023-04-08T12:23:06;101274.19;;;20.64;48.30
35419;BME280;21525;41.240;16.500;2023-04-08T12:25:32;101265.59;;;21.69;46.65
35419;BME280;21525;41.240;16.500;2023-04-08T12:27:58;101279.66;;;21.16;48.28
35419;BME280;21525;41.240;16.500;2023-04-08T12:30:24;101269.38;;;21.46;47.96
35419;BME280;21525;41.240;16.500;2023-04-08T12:32:50;101270.47;;;20.87;48.36
35419;BME280;21525;41.240;16.500;2023-04-08T12:35:15;101274.00;;;21.77;46.77
35419;BME280;21525;41.240;16.500;2023-04-08T12:37:41;101275.88;;;20.84;52.11
35419;BME280;21525;41.240;16.500;2023-04-08T12:40:07;101266.81;;;20.52;54.45
35419;BME280;21525;41.240;16.500;2023-04-08T12:42:33;101257.94;;;20.53;54.75
35419;BME280;21525;41.240;16.500;2023-04-08T12:44:59;101264.97;;;20.92;53.23
35419;BME280;21525;41.240;16.500;2023-04-08T12:47:25;101262.19;;;21.12;53.17
35419;BME280;21525;41.240;16.500;2023-04-08T12:49:51;101259.13;;;20.66;55.19